sensor_id;sensor_type;location;lat;lon;timestamp;pressure;altitude;pressure_sealevel;temperature;humidity
70781;BME280;59514;48.810;2.134;2023-05-10T11:31:13;100165.50;;;14.29;89.05
70781;BME280;59514;48.810;2.134;2023-05-10T11:33:50;100164.94;;;14.53;89.03
70781;BME280;59514;48.810;2.134;2023-05-10T11:38:42;100161.00;;;15.34;89.86
70781;BME280;59514;48.810;2.134;2023-05-10T11:41:09;100159.13;;;15.82;88.51
70781;BME280;59514;48.810;2.134;2023-05-10T11:43:35;100163.91;;;15.65;81.58
70781;BME280;59514;48.810;2.134;2023-05-10T11:46:02;100163.53;;;15.98;81.44
70781;BME280;59514;48.810;2.134;2023-05-10T11:48:29;100164.94;;;16.15;78.11
70781;BME280;59514;48.810;2.134;2023-05-10T11:50:55;100154.78;;;16.73;83.00
70781;BME280;59514;48.810;2.134;2023-05-10T11:53:22;100156.31;;;16.38;74.95
70781;BME280;59514;48.810;2.134;2023-05-10T11:55:47;100149.81;;;16.39;75.02
70781;BME280;59514;48.810;2.134;2023-05-10T11:58:13;100156.94;;;16.61;79.89
70781;BME280;59514;48.810;2.134;2023-05-10T12:00:38;100147.19;;;17.05;78.52
70781;BME280;59514;48.810;2.134;2023-05-10T12:03:04;100146.91;;;16.91;77.74
70781;BME280;59514;48.810;2.134;2023-05-10T12:05:32;100160.06;;;16.12;76.00
70781;BME280;59514;48.810;2.134;2023-05-10T12:08:21;100164.69;;;16.22;75.84
70781;BME280;59514;48.810;2.134;2023-05-10T12:10:46;100158.44;;;16.21;77.79
70781;BME280;59514;48.810;2.134;2023-05-10T12:13:12;100161.13;;;16.06;83.93
70781;BME280;59514;48.810;2.134;2023-05-10T12:15:39;100163.31;;;16.14;89.95
70781;BME280;59514;48.810;2.134;2023-05-10T12:18:04;100164.31;;;15.88;89.60
70781;BME280;59514;48.810;2.134;2023-05-10T12:20:30;100157.03;;;16.09;86.51
70781;BME280;59514;48.810;2.134;2023-05-10T12:22:57;100155.25;;;16.39;81.86
70781;BME280;59514;48.810;2.134;2023-05-10T12:25:29;100155.59;;;15.76;79.65
70781;BME280;59514;48.810;2.134;2023-05-10T12:27:56;100162.25;;;16.20;80.66
70781;BME280;59514;48.810;2.134;2023-05-10T12:30:26;100154.50;;;16.79;70.72
70781;BME280;59514;48.810;2.134;2023-05-10T12:32:53;100170.75;;;16.54;69.10
70781;BME280;59514;48.810;2.134;2023-05-10T12:35:19;100160.06;;;16.12;70.80
70781;BME280;59514;48.810;2.134;2023-05-10T12:37:50;100167.09;;;16.13;71.94
70781;BME280;59514;48.810;2.134;2023-05-10T12:40:15;100150.97;;;16.54;71.98
70781;BME280;59514;48.810;2.134;2023-05-10T12:42:41;100154.22;;;17.31;70.05
70781;BME280;59514;48.810;2.134;2023-05-10T12:45:07;100148.22;;;17.49;69.58
70781;BME280;59514;48.810;2.134;2023-05-10T12:47:33;100146.22;;;18.34;70.76
70781;BME280;59514;48.810;2.134;2023-05-10T12:50:00;100142.50;;;18.63;67.33
70781;BME280;59514;48.810;2.134;2023-05-10T12:52:26;100138.00;;;19.16;69.62
70781;BME280;59514;48.810;2.134;2023-05-10T12:54:52;100141.56;;;18.83;68.23
70781;BME280;59514;48.810;2.134;2023-05-10T12:57:18;100148.59;;;17.96;68.11
70781;BME280;59514;48.810;2.134;2023-05-10T12:59:43;100145.22;;;17.41;73.46
70781;BME280;59514;48.810;2.134;2023-05-10T13:02:09;100146.59;;;17.53;68.39
70781;BME280;59514;48.810;2.134;2023-05-10T13:04:35;100154.13;;;17.71;66.81
70781;BME280;59514;48.810;2.134;2023-05-10T13:07:04;100145.69;;;18.32;70.94
70781;BME280;59514;48.810;2.134;2023-05-10T13:09:29;100140.19;;;18.42;60.83
70781;BME280;59514;48.810;2.134;2023-05-10T13:11:55;100134.34;;;18.68;62.42
70781;BME280;59514;48.810;2.134;2023-05-10T13:14:20;100142.00;;;18.13;61.39
70781;BME280;59514;48.810;2.134;2023-05-10T13:16:46;100130.16;;;17.93;62.00
70781;BME280;59514;48.810;2.134;2023-05-10T13:19:13;100134.72;;;17.98;65.93
70781;BME280;59514;48.810;2.134;2023-05-10T13:21:38;100136.13;;;17.95;63.04
70781;BME280;59514;48.810;2.134;2023-05-10T13:24:05;100146.84;;;18.21;61.85
70781;BME280;59514;48.810;2.134;2023-05-10T13:26:31;100141.44;;;17.37;64.65
70781;BME280;59514;48.810;2.134;2023-05-10T13:28:56;100153.16;;;17.02;65.08
70781;BME280;59514;48.810;2.134;2023-05-10T13:31:22;100151.00;;;17.04;63.23
70781;BME280;59514;48.810;2.134;2023-05-10T13:33:47;100142.13;;;17.82;62.26
70781;BME280;59514;48.810;2.134;2023-05-10T13:36:12;100144.69;;;18.61;60.72
70781;BME280;59514;48.810;2.134;2023-05-10T13:38:37;100140.34;;;18.17;64.19
70781;BME280;59514;48.810;2.134;2023-05-10T13:41:03;100126.19;;;18.97;61.08
70781;BME280;59514;48.810;2.134;2023-05-10T13:43:29;100127.00;;;18.69;58.04
70781;BME280;59514;48.810;2.134;2023-05-10T13:45:54;100128.84;;;18.73;59.59
70781;BME280;59514;48.810;2.134;2023-05-10T13:48:20;100123.28;;;19.69;59.54
70781;BME280;59514;48.810;2.134;2023-05-10T13:50:46;100128.88;;;19.31;56.99
70781;BME280;59514;48.810;2.134;2023-05-10T13:53:11;100126.25;;;20.15;55.62
70781;BME280;59514;48.810;2.134;2023-05-10T13:55:36;100119.41;;;19.75;58.06
70781;BME280;59514;48.810;2.134;2023-05-10T13:58:02;100131.75;;;18.87;59.32
70781;BME280;59514;48.810;2.134;2023-05-10T14:00:27;100126.81;;;18.06;59.58
70781;BME280;59514;48.810;2.134;2023-05-10T14:02:53;100124.28;;;17.71;60.78
70781;BME280;59514;48.810;2.134;2023-05-10T14:05:18;100122.53;;;17.90;63.24
70781;BME280;59514;48.810;2.134;2023-05-10T14:07:44;100117.97;;;18.30;63.79
70781;BME280;59514;48.810;2.134;2023-05-10T14:10:10;100118.63;;;18.89;58.87
70781;BME280;59514;48.810;2.134;2023-05-10T14:12:35;100116.31;;;19.06;55.97
70781;BME280;59514;48.810;2.134;2023-05-10T14:15:00;100107.75;;;18.89;57.11
70781;BME280;59514;48.810;2.134;2023-05-10T14:17:26;100117.28;;;18.58;58.57
70781;BME280;59514;48.810;2.134;2023-05-10T14:19:52;100114.25;;;18.93;56.60
70781;BME280;59514;48.810;2.134;2023-05-10T14:22:17;100122.66;;;19.25;55.55
70781;BME280;59514;48.810;2.134;2023-05-10T14:24:43;100119.13;;;18.96;54.32
70781;BME280;59514;48.810;2.134;2023-05-10T14:27:11;100118.19;;;19.63;55.05
70781;BME280;59514;48.810;2.134;2023-05-10T14:29:37;100122.91;;;19.00;54.37
70781;BME280;59514;48.810;2.134;2023-05-10T14:32:02;100118.63;;;19.23;52.27
70781;BME280;59514;48.810;2.134;2023-05-10T14:34:28;100119.97;;;18.97;53.00
70781;BME280;59514;48.810;2.134;2023-05-10T14:36:53;100119.81;;;19.40;53.92
70781;BME280;59514;48.810;2.134;2023-05-10T14:39:19;100120.97;;;19.29;53.35
70781;BME280;59514;48.810;2.134;2023-05-10T14:41:44;100114.31;;;19.17;56.06
70781;BME280;59514;48.810;2.134;2023-05-10T14:44:10;100107.81;;;19.41;53.59
70781;BME280;59514;48.810;2.134;2023-05-10T14:46:36;100104.94;;;18.99;54.73
70781;BME280;59514;48.810;2.134;2023-05-10T14:49:02;100095.66;;;18.71;57.17
70781;BME280;59514;48.810;2.134;2023-05-10T14:51:27;100110.06;;;18.77;57.61
70781;BME280;59514;48.810;2.134;2023-05-10T14:53:52;100109.81;;;18.30;58.28
70781;BME280;59514;48.810;2.134;2023-05-10T14:56:18;100108.44;;;17.88;59.21
70781;BME280;59514;48.810;2.134;2023-05-10T14:58:43;100112.75;;;17.94;60.05
70781;BME280;59514;48.810;2.134;2023-05-10T15:01:08;100111.41;;;18.41;62.43
70781;BME280;59514;48.810;2.134;2023-05-10T15:03:33;100105.75;;;19.28;55.70
70781;BME280;59514;48.810;2.134;2023-05-10T15:05:59;100106.63;;;18.95;53.49
70781;BME280;59514;48.810;2.134;2023-05-10T15:08:24;100106.97;;;19.46;54.33
70781;BME280;59514;48.810;2.134;2023-05-10T15:10:50;100103.19;;;19.65;56.34
70781;BME280;59514;48.810;2.134;2023-05-10T15:13:16;100108.88;;;20.48;52.95
70781;BME280;59514;48.810;2.134;2023-05-10T15:15:41;100109.47;;;19.85;54.00
70781;BME280;59514;48.810;2.134;2023-05-10T15:18:08;100126.41;;;19.34;54.15
70781;BME280;59514;48.810;2.134;2023-05-10T15:20:34;100115.69;;;18.85;60.18
70781;BME280;59514;48.810;2.134;2023-05-10T15:23:00;100120.69;;;18.73;60.67
70781;BME280;59514;48.810;2.134;2023-05-10T15:25:25;100120.88;;;17.99;59.54
70781;BME280;59514;48.810;2.134;2023-05-10T15:27:51;100121.38;;;18.06;62.94
70781;BME280;59514;48.810;2.134;2023-05-10T15:30:16;100126.03;;;17.96;60.74
70781;BME280;59514;48.810;2.134;2023-05-10T15:32:41;100126.75;;;17.43;60.82
70781;BME280;59514;48.810;2.134;2023-05-10T15:35:08;100127.59;;;17.43;61.76
70781;BME280;59514;48.810;2.134;2023-05-10T15:37:35;100131.47;;;17.12;60.88
70781;BME280;59514;48.810;2.134;2023-05-10T15:40:00;100130.94;;;17.00;61.25
70781;BME280;59514;48.810;2.134;2023-05-10T15:42:28;100128.75;;;17.02;60.75
70781;BME280;59514;48.810;2.134;2023-05-10T15:44:54;100129.31;;;16.94;59.93
70781;BME280;59514;48.810;2.134;2023-05-10T15:47:20;100133.09;;;16.83;59.53
70781;BME280;59514;48.810;2.134;2023-05-10T15:49:45;100134.19;;;17.02;60.55
70781;BME280;59514;48.810;2.134;2023-05-10T15:52:10;100135.25;;;17.11;60.33
70781;BME280;59514;48.810;2.134;2023-05-10T15:54:36;100137.69;;;16.92;60.68
70781;BME280;59514;48.810;2.134;2023-05-10T15:57:01;100126.31;;;17.05;61.45
70781;BME280;59514;48.810;2.134;2023-05-10T15:59:26;100138.50;;;16.93;58.50
70781;BME280;59514;48.810;2.134;2023-05-10T16:01:51;100137.41;;;16.99;57.94
70781;BME280;59514;48.810;2.134;2023-05-10T16:04:17;100138.50;;;17.13;58.67
70781;BME280;59514;48.810;2.134;2023-05-10T16:06:42;100137.91;;;17.26;59.11
70781;BME280;59514;48.810;2.134;2023-05-10T16:09:07;100128.13;;;17.45;57.65
70781;BME280;59514;48.810;2.134;2023-05-10T16:11:34;100126.47;;;17.54;57.45
70781;BME280;59514;48.810;2.134;2023-05-10T16:14:00;100131.56;;;18.73;56.23
70781;BME280;59514;48.810;2.134;2023-05-10T16:16:25;100135.84;;;19.13;57.19
70781;BME280;59514;48.810;2.134;2023-05-10T16:18:51;100135.75;;;19.23;56.97
70781;BME280;59514;48.810;2.134;2023-05-10T16:21:16;100134.66;;;18.96;55.24
70781;BME280;59514;48.810;2.134;2023-05-10T16:23:42;100136.69;;;18.41;57.83
70781;BME280;59514;48.810;2.134;2023-05-10T16:26:10;100130.94;;;18.48;55.36
70781;BME280;59514;48.810;2.134;2023-05-10T16:28:35;100134.94;;;18.60;56.04
70781;BME280;59514;48.810;2.134;2023-05-10T16:31:01;100143.13;;;18.06;57.38
70781;BME280;59514;48.810;2.134;2023-05-10T16:33:27;100148.63;;;17.86;60.06
70781;BME280;59514;48.810;2.134;2023-05-10T16:35:53;100143.06;;;17.53;57.94
70781;BME280;59514;48.810;2.134;2023-05-10T16:38:18;100145.78;;;17.33;61.11
70781;BME280;59514;48.810;2.134;2023-05-10T16:40:45;100147.94;;;17.56;62.51
70781;BME280;59514;48.810;2.134;2023-05-10T16:43:11;100151.47;;;17.41;58.15
70781;BME280;59514;48.810;2.134;2023-05-10T16:45:36;100150.94;;;17.34;59.72
70781;BME280;59514;48.810;2.134;2023-05-10T16:48:01;100147.97;;;17.26;63.31
70781;BME280;59514;48.810;2.134;2023-05-10T16:50:28;100146.09;;;16.81;61.41
70781;BME280;59514;48.810;2.134;2023-05-10T16:52:53;100155.31;;;16.85;63.34
70781;BME280;59514;48.810;2.134;2023-05-10T16:55:19;100159.66;;;16.56;64.50
70781;BME280;59514;48.810;2.134;2023-05-10T16:57:44;100152.00;;;16.37;66.53
70781;BME280;59514;48.810;2.134;2023-05-10T17:00:10;100151.81;;;15.87;71.34
70781;BME280;59514;48.810;2.134;2023-05-10T17:02:36;100147.97;;;15.68;74.21
70781;BME280;59514;48.810;2.134;2023-05-10T17:05:02;100153.03;;;15.55;75.64
70781;BME280;59514;48.810;2.134;2023-05-10T17:07:28;100147.19;;;15.31;77.84
70781;BME280;59514;48.810;2.134;2023-05-10T17:09:53;100146.09;;;15.32;78.68
70781;BME280;59514;48.810;2.134;2023-05-10T17:12:18;100138.13;;;15.15;79.91
70781;BME280;59514;48.810;2.134;2023-05-10T17:14:44;100149.13;;;14.99;81.51
70781;BME280;59514;48.810;2.134;2023-05-10T17:17:09;100140.81;;;15.10;81.62
70781;BME280;59514;48.810;2.134;2023-05-10T17:19:35;100143.25;;;15.12;81.67
70781;BME280;59514;48.810;2.134;2023-05-10T17:22:01;100149.19;;;15.09;82.85
70781;BME280;59514;48.810;2.134;2023-05-10T17:24:26;100139.44;;;15.08;83.69
70781;BME280;59514;48.810;2.134;2023-05-10T17:26:54;100150.75;;;15.00;86.87
70781;BME280;59514;48.810;2.134;2023-05-10T17:29:19;100143.19;;;15.02;83.52
70781;BME280;59514;48.810;2.134;2023-05-10T17:31:45;100136.81;;;15.18;83.49
70781;BME280;59514;48.810;2.134;2023-05-10T17:34:10;100143.47;;;15.05;81.43
70781;BME280;59514;48.810;2.134;2023-05-10T17:36:36;100146.53;;;15.14;80.28
70781;BME280;59514;48.810;2.134;2023-05-10T17:39:01;100142.44;;;15.11;79.24
70781;BME280;59514;48.810;2.134;2023-05-10T17:41:26;100146.81;;;15.17;80.75
70781;BME280;59514;48.810;2.134;2023-05-10T17:43:52;100143.25;;;15.12;78.33
70781;BME280;59514;48.810;2.134;2023-05-10T17:46:18;100148.09;;;15.10;77.65
70781;BME280;59514;48.810;2.134;2023-05-10T17:48:43;100149.75;;;15.11;78.64
70781;BME280;59514;48.810;2.134;2023-05-10T17:51:08;100155.94;;;15.06;78.12
70781;BME280;59514;48.810;2.134;2023-05-10T17:53:36;100153.25;;;15.11;79.71
70781;BME280;59514;48.810;2.134;2023-05-10T17:56:01;100162.47;;;15.15;77.05
70781;BME280;59514;48.810;2.134;2023-05-10T17:58:26;100147.56;;;15.08;75.89
70781;BME280;59514;48.810;2.134;2023-05-10T18:00:52;100159.47;;;15.12;74.51
70781;BME280;59514;48.810;2.134;2023-05-10T18:03:18;100162.75;;;15.14;75.19
70781;BME280;59514;48.810;2.134;2023-05-10T18:05:43;100160.38;;;15.22;74.41
70781;BME280;59514;48.810;2.134;2023-05-10T18:08:10;100169.81;;;15.20;73.99
70781;BME280;59514;48.810;2.134;2023-05-10T18:10:36;100170.38;;;15.22;74.60
70781;BME280;59514;48.810;2.134;2023-05-10T18:13:01;100158.28;;;15.34;74.37
70781;BME280;59514;48.810;2.134;2023-05-10T18:15:29;100175.91;;;15.37;73.99
70781;BME280;59514;48.810;2.134;2023-05-10T18:17:55;100169.41;;;15.38;75.66
70781;BME280;59514;48.810;2.134;2023-05-10T18:20:21;100171.28;;;15.32;74.95
70781;BME280;59514;48.810;2.134;2023-05-10T18:22:46;100176.25;;;15.45;72.06
70781;BME280;59514;48.810;2.134;2023-05-10T18:25:11;100171.06;;;15.39;71.01
70781;BME280;59514;48.810;2.134;2023-05-10T18:27:37;100173.81;;;15.44;71.16
70781;BME280;59514;48.810;2.134;2023-05-10T18:30:02;100172.38;;;15.36;72.45
70781;BME280;59514;48.810;2.134;2023-05-10T18:32:28;100178.53;;;15.27;70.98
70781;BME280;59514;48.810;2.134;2023-05-10T18:34:54;100186.03;;;15.15;70.85
70781;BME280;59514;48.810;2.134;2023-05-10T18:37:20;100180.81;;;15.08;71.67
70781;BME280;59514;48.810;2.134;2023-05-10T18:39:46;100181.34;;;15.05;72.22
70781;BME280;59514;48.810;2.134;2023-05-10T18:42:11;100179.03;;;14.87;72.60
70781;BME280;59514;48.810;2.134;2023-05-10T18:44:36;100187.28;;;14.76;73.35
70781;BME280;59514;48.810;2.134;2023-05-10T18:47:01;100186.69;;;14.68;73.04
70781;BME280;59514;48.810;2.134;2023-05-10T18:49:27;100190.91;;;14.59;73.04
70781;BME280;59514;48.810;2.134;2023-05-10T18:51:53;100192.56;;;14.60;74.80
70781;BME280;59514;48.810;2.134;2023-05-10T18:54:18;100191.91;;;14.48;74.69
70781;BME280;59514;48.810;2.134;2023-05-10T18:56:44;100201.22;;;14.36;74.89
70781;BME280;59514;48.810;2.134;2023-05-10T18:59:10;100207.56;;;14.25;74.12
70781;BME280;59514;48.810;2.134;2023-05-10T19:01:36;100205.28;;;14.17;75.10
70781;BME280;59514;48.810;2.134;2023-05-10T19:04:01;100211.78;;;14.16;75.96
70781;BME280;59514;48.810;2.134;2023-05-10T19:06:26;100217.34;;;14.09;75.59
70781;BME280;59514;48.810;2.134;2023-05-10T19:08:52;100217.50;;;13.98;76.74
70781;BME280;59514;48.810;2.134;2023-05-10T19:11:18;100221.75;;;13.94;76.81
70781;BME280;59514;48.810;2.134;2023-05-10T19:13:44;100214.41;;;13.89;77.31
70781;BME280;59514;48.810;2.134;2023-05-10T19:16:14;100224.06;;;13.85;78.15
70781;BME280;59514;48.810;2.134;2023-05-10T19:18:40;100226.38;;;13.76;79.23
70781;BME280;59514;48.810;2.134;2023-05-10T19:21:06;100224.97;;;13.74;79.69
70781;BME280;59514;48.810;2.134;2023-05-10T19:23:33;100232.44;;;13.67;80.83
70781;BME280;59514;48.810;2.134;2023-05-10T19:25:59;100234.00;;;13.63;81.15
70781;BME280;59514;48.810;2.134;2023-05-10T19:28:25;100236.38;;;13.59;81.48
70781;BME280;59514;48.810;2.134;2023-05-10T19:30:51;100239.75;;;13.50;81.87
70781;BME280;59514;48.810;2.134;2023-05-10T19:33:16;100246.34;;;13.42;83.22
70781;BME280;59514;48.810;2.134;2023-05-10T19:35:42;100242.78;;;13.37;83.25
70781;BME280;59514;48.810;2.134;2023-05-10T19:38:07;100242.94;;;13.47;83.54
70781;BME280;59514;48.810;2.134;2023-05-10T19:40:32;100254.69;;;13.41;84.44
70781;BME280;59514;48.810;2.134;2023-05-10T19:42:58;100253.66;;;13.42;84.67
70781;BME280;59514;48.810;2.134;2023-05-10T19:45:24;100260.66;;;13.43;84.22
70781;BME280;59514;48.810;2.134;2023-05-10T19:47:50;100259.53;;;13.39;85.41
70781;BME280;59514;48.810;2.134;2023-05-10T19:50:16;100263.38;;;13.26;85.48
70781;BME280;59514;48.810;2.134;2023-05-10T19:52:41;100269.09;;;13.30;86.17
70781;BME280;59514;48.810;2.134;2023-05-10T19:55:07;100270.53;;;13.21;86.58
70781;BME280;59514;48.810;2.134;2023-05-10T19:57:33;100275.63;;;13.17;86.61
70781;BME280;59514;48.810;2.134;2023-05-10T19:59:58;100277.28;;;13.18;86.10
70781;BME280;59514;48.810;2.134;2023-05-10T20:02:23;100283.56;;;13.24;86.59
70781;BME280;59514;48.810;2.134;2023-05-10T20:04:49;100279.03;;;13.13;87.11
70781;BME280;59514;48.810;2.134;2023-05-10T20:07:15;100285.25;;;13.13;87.81
70781;BME280;59514;48.810;2.134;2023-05-10T20:09:41;100286.66;;;13.16;87.89
70781;BME280;59514;48.810;2.134;2023-05-10T20:12:08;100288.66;;;13.09;88.77
70781;BME280;59514;48.810;2.134;2023-05-10T20:14:33;100290.00;;;13.06;88.40
70781;BME280;59514;48.810;2.134;2023-05-10T20:16:58;100280.50;;;13.04;88.74
70781;BME280;59514;48.810;2.134;2023-05-10T20:19:24;100286.34;;;13.00;88.40
70781;BME280;59514;48.810;2.134;2023-05-10T20:21:49;100288.97;;;12.95;89.49
70781;BME280;59514;48.810;2.134;2023-05-10T20:24:14;100286.66;;;12.87;89.88
70781;BME280;59514;48.810;2.134;2023-05-10T20:26:40;100295.38;;;12.78;90.47
70781;BME280;59514;48.810;2.134;2023-05-10T20:29:05;100295.50;;;12.71;90.31
70781;BME280;59514;48.810;2.134;2023-05-10T20:31:30;100293.69;;;12.60;91.59
70781;BME280;59514;48.810;2.134;2023-05-10T20:33:56;100293.56;;;12.55;92.44
70781;BME280;59514;48.810;2.134;2023-05-10T20:36:21;100291.59;;;12.51;92.06
70781;BME280;59514;48.810;2.134;2023-05-10T20:38:47;100305.22;;;12.44;91.94
70781;BME280;59514;48.810;2.134;2023-05-10T20:41:12;100300.19;;;12.36;93.13
70781;BME280;59514;48.810;2.134;2023-05-10T20:43:37;100295.75;;;12.30;93.07
70781;BME280;59514;48.810;2.134;2023-05-10T20:46:02;100301.03;;;12.25;93.46
70781;BME280;59514;48.810;2.134;2023-05-10T20:48:30;100300.44;;;12.23;93.61
70781;BME280;59514;48.810;2.134;2023-05-10T20:50:57;100295.91;;;12.12;94.35
70781;BME280;59514;48.810;2.134;2023-05-10T20:53:22;100301.88;;;12.14;94.73
70781;BME280;59514;48.810;2.134;2023-05-10T20:55:47;100299.22;;;12.02;95.32
70781;BME280;59514;48.810;2.134;2023-05-10T20:58:13;100304.00;;;12.00;95.67
70781;BME280;59514;48.810;2.134;2023-05-10T21:00:38;100302.72;;;11.91;96.89
70781;BME280;59514;48.810;2.134;2023-05-10T21:03:03;100302.84;;;11.85;97.66
70781;BME280;59514;48.810;2.134;2023-05-10T21:05:29;100310.78;;;11.80;97.36
70781;BME280;59514;48.810;2.134;2023-05-10T21:07:54;100310.09;;;11.73;97.80
70781;BME280;59514;48.810;2.134;2023-05-10T21:10:19;100300.38;;;11.72;98.25
70781;BME280;59514;48.810;2.134;2023-05-10T21:12:45;100309.38;;;11.66;98.50
70781;BME280;59514;48.810;2.134;2023-05-10T21:15:11;100305.38;;;11.57;100.00
70781;BME280;59514;48.810;2.134;2023-05-10T21:17:36;100305.25;;;11.52;100.00
70781;BME280;59514;48.810;2.134;2023-05-10T21:20:01;100312.13;;;11.48;100.00
70781;BME280;59514;48.810;2.134;2023-05-10T21:22:27;100308.88;;;11.46;100.00
70781;BME280;59514;48.810;2.134;2023-05-10T21:24:53;100312.03;;;11.43;100.00
70781;BME280;59514;48.810;2.134;2023-05-10T21:27:18;100310.50;;;11.47;100.00
70781;BME280;59514;48.810;2.134;2023-05-10T21:29:43;100316.34;;;11.44;100.00
70781;BME280;59514;48.810;2.134;2023-05-10T21:32:09;100318.44;;;11.42;100.00
70781;BME280;59514;48.810;2.134;2023-05-10T21:34:35;100318.91;;;11.39;100.00
70781;BME280;59514;48.810;2.134;2023-05-10T21:37:00;100315.66;;;11.37;100.00
70781;BME280;59514;48.810;2.134;2023-05-10T21:39:25;100319.38;;;11.36;100.00
70781;BME280;59514;48.810;2.134;2023-05-10T21:41:51;100317.25;;;11.38;100.00
70781;BME280;59514;48.810;2.134;2023-05-10T21:44:16;100316.81;;;11.41;100.00
70781;BME280;59514;48.810;2.134;2023-05-10T21:46:42;100309.34;;;11.43;100.00
70781;BME280;59514;48.810;2.134;2023-05-10T21:49:08;100321.59;;;11.39;100.00
70781;BME280;59514;48.810;2.134;2023-05-10T21:51:34;100318.44;;;11.42;100.00
70781;BME280;59514;48.810;2.134;2023-05-10T21:53:59;100312.13;;;11.48;100.00
70781;BME280;59514;48.810;2.134;2023-05-10T21:56:25;100318.00;;;11.45;100.00
70781;BME280;59514;48.810;2.134;2023-05-10T21:58:51;100320.53;;;11.40;100.00
70781;BME280;59514;48.810;2.134;2023-05-10T22:01:16;100317.75;;;11.35;100.00
70781;BME280;59514;48.810;2.134;2023-05-10T22:03:42;100315.28;;;11.33;100.00
70781;BME280;59514;48.810;2.134;2023-05-10T22:06:07;100317.59;;;11.29;100.00
70781;BME280;59514;48.810;2.134;2023-05-10T22:08:33;100316.66;;;11.24;100.00
70781;BME280;59514;48.810;2.134;2023-05-10T22:10:58;100318.31;;;11.25;100.00
70781;BME280;59514;48.810;2.134;2023-05-10T22:13:23;100316.41;;;11.25;100.00
70781;BME280;59514;48.810;2.134;2023-05-10T22:15:49;100311.19;;;11.31;100.00
70781;BME280;59514;48.810;2.134;2023-05-10T22:18:15;100309.53;;;11.29;100.00
70781;BME280;59514;48.810;2.134;2023-05-10T22:20:43;100308.94;;;11.27;100.00
70781;BME280;59514;48.810;2.134;2023-05-10T22:23:09;100313.84;;;11.19;100.00
70781;BME280;59514;48.810;2.134;2023-05-10T22:25:34;100313.72;;;11.14;100.00
70781;BME280;59514;48.810;2.134;2023-05-10T22:27:59;100317.59;;;11.18;100.00
70781;BME280;59514;48.810;2.134;2023-05-10T22:30:25;100311.84;;;11.14;100.00
70781;BME280;59514;48.810;2.134;2023-05-10T22:32:51;100317.13;;;11.09;100.00
70781;BME280;59514;48.810;2.134;2023-05-10T22:35:16;100309.06;;;11.09;100.00
70781;BME280;59514;48.810;2.134;2023-05-10T22:37:42;100313.25;;;11.05;100.00
70781;BME280;59514;48.810;2.134;2023-05-10T22:40:08;100315.34;;;11.03;100.00
70781;BME280;59514;48.810;2.134;2023-05-10T22:42:33;100313.09;;;11.00;100.00
70781;BME280;59514;48.810;2.134;2023-05-10T22:44:58;100320.72;;;11.03;100.00
70781;BME280;59514;48.810;2.134;2023-05-10T22:47:24;100314.97;;;11.00;100.00
70781;BME280;59514;48.810;2.134;2023-05-10T22:49:49;100322.66;;;10.96;100.00
70781;BME280;59514;48.810;2.134;2023-05-10T22:52:15;100322.75;;;10.90;100.00
70781;BME280;59514;48.810;2.134;2023-05-10T22:54:40;100317.97;;;10.92;100.00
70781;BME280;59514;48.810;2.134;2023-05-10T22:57:05;100321.47;;;10.92;100.00
70781;BME280;59514;48.810;2.134;2023-05-10T22:59:31;100322.53;;;10.91;100.00
70781;BME280;59514;48.810;2.134;2023-05-10T23:01:56;100320.88;;;10.90;100.00
70781;BME280;59514;48.810;2.134;2023-05-10T23:04:22;100321.84;;;10.96;100.00
70781;BME280;59514;48.810;2.134;2023-05-10T23:06:47;100322.41;;;10.98;100.00
70781;BME280;59514;48.810;2.134;2023-05-10T23:09:12;100317.88;;;10.98;100.00
70781;BME280;59514;48.810;2.134;2023-05-10T23:11:38;100321.47;;;10.92;100.00
70781;BME280;59514;48.810;2.134;2023-05-10T23:14:03;100314.59;;;10.96;100.00
70781;BME280;59514;48.810;2.134;2023-05-10T23:16:29;100319.97;;;10.96;100.00
70781;BME280;59514;48.810;2.134;2023-05-10T23:18:54;100312.16;;;10.95;100.00
70781;BME280;59514;48.810;2.134;2023-05-10T23:21:20;100318.19;;;10.90;100.00
70781;BME280;59514;48.810;2.134;2023-05-10T23:23:45;100321.94;;;10.89;100.00
70781;BME280;59514;48.810;2.134;2023-05-10T23:26:11;100316.69;;;10.94;100.00
70781;BME280;59514;48.810;2.134;2023-05-10T23:28:36;100313.78;;;10.96;100.00
70781;BME280;59514;48.810;2.134;2023-05-10T23:31:02;100323.25;;;10.98;100.00
70781;BME280;59514;48.810;2.134;2023-05-10T23:33:27;100316.38;;;11.02;100.00
70781;BME280;59514;48.810;2.134;2023-05-10T23:35:53;100315.22;;;11.10;100.00
70781;BME280;59514;48.810;2.134;2023-05-10T23:38:19;100312.19;;;11.06;100.00
70781;BME280;59514;48.810;2.134;2023-05-10T23:40:48;100315.34;;;11.03;100.00
70781;BME280;59514;48.810;2.134;2023-05-10T23:43:14;100319.28;;;11.01;100.00
70781;BME280;59514;48.810;2.134;2023-05-10T23:45:40;100320.56;;;10.98;100.00
70781;BME280;59514;48.810;2.134;2023-05-10T23:48:05;100316.13;;;11.04;100.00
70781;BME280;59514;48.810;2.134;2023-05-10T23:50:31;100317.78;;;11.05;100.00
70781;BME280;59514;48.810;2.134;2023-05-10T23:52:56;100305.06;;;11.12;100.00
70781;BME280;59514;48.810;2.134;2023-05-10T23:55:21;100310.22;;;11.13;100.00
70781;BME280;59514;48.810;2.134;2023-05-10T23:57:47;100310.34;;;11.18;100.00
